sensor_id;sensor_type;location;lat;lon;timestamp;P1;durP1;ratioP1;P2;durP2;ratioP2
74158;SDS011;62511;47.970;11.774;2022-10-16T00:01:29;1.30;;;1.20;;
74158;SDS011;62511;47.970;11.774;2022-10-16T00:03:56;1.67;;;1.35;;
74158;SDS011;62511;47.970;11.774;2022-10-16T00:06:23;1.30;;;1.20;;
74158;SDS011;62511;47.970;11.774;2022-10-16T00:08:49;4.30;;;1.10;;
74158;SDS011;62511;47.970;11.774;2022-10-16T00:11:19;1.23;;;1.10;;
74158;SDS011;62511;47.970;11.774;2022-10-16T00:13:46;2.60;;;1.40;;
74158;SDS011;62511;47.970;11.774;2022-10-16T00:16:13;3.00;;;1.20;;
74158;SDS011;62511;47.970;11.774;2022-10-16T00:18:39;2.58;;;1.15;;
74158;SDS011;62511;47.970;11.774;2022-10-16T00:21:10;2.38;;;1.13;;
74158;SDS011;62511;47.970;11.774;2022-10-16T00:23:36;1.80;;;1.20;;
74158;SDS011;62511;47.970;11.774;2022-10-16T00:26:04;1.70;;;1.40;;
74158;SDS011;62511;47.970;11.774;2022-10-16T00:28:30;1.77;;;1.20;;
74158;SDS011;62511;47.970;11.774;2022-10-16T00:30:56;1.65;;;1.08;;
74158;SDS011;62511;47.970;11.774;2022-10-16T00:33:23;2.00;;;1.10;;
74158;SDS011;62511;47.970;11.774;2022-10-16T00:35:49;1.65;;;1.20;;
74158;SDS011;62511;47.970;11.774;2022-10-16T00:38:15;2.70;;;1.10;;
74158;SDS011;62511;47.970;11.774;2022-10-16T00:40:41;1.33;;;1.17;;
74158;SDS011;62511;47.970;11.774;2022-10-16T00:43:53;2.10;;;1.00;;
74158;SDS011;62511;47.970;11.774;2022-10-16T00:45:53;1.58;;;1.13;;
74158;SDS011;62511;47.970;11.774;2022-10-16T00:48:19;1.20;;;0.80;;
74158;SDS011;62511;47.970;11.774;2022-10-16T00:50:45;1.90;;;1.15;;
74158;SDS011;62511;47.970;11.774;2022-10-16T00:53:11;0.80;;;0.80;;
74158;SDS011;62511;47.970;11.774;2022-10-16T00:55:37;1.45;;;1.10;;
74158;SDS011;62511;47.970;11.774;2022-10-16T00:58:03;2.25;;;1.27;;
74158;SDS011;62511;47.970;11.774;2022-10-16T01:00:29;2.13;;;1.15;;
74158;SDS011;62511;47.970;11.774;2022-10-16T01:02:57;1.45;;;1.10;;
74158;SDS011;62511;47.970;11.774;2022-10-16T01:05:23;2.72;;;1.00;;
74158;SDS011;62511;47.970;11.774;2022-10-16T01:07:58;2.00;;;1.20;;
74158;SDS011;62511;47.970;11.774;2022-10-16T01:15:26;1.40;;;1.10;;
74158;SDS011;62511;47.970;11.774;2022-10-16T01:17:58;3.13;;;1.20;;
74158;SDS011;62511;47.970;11.774;2022-10-16T01:20:27;2.75;;;1.25;;
74158;SDS011;62511;47.970;11.774;2022-10-16T01:23:14;1.85;;;1.20;;
74158;SDS011;62511;47.970;11.774;2022-10-16T01:25:49;1.73;;;1.25;;
74158;SDS011;62511;47.970;11.774;2022-10-16T01:28:21;1.33;;;1.00;;
74158;SDS011;62511;47.970;11.774;2022-10-16T01:30:48;3.08;;;1.02;;
74158;SDS011;62511;47.970;11.774;2022-10-16T01:33:18;2.17;;;1.30;;
74158;SDS011;62511;47.970;11.774;2022-10-16T01:35:48;2.13;;;1.20;;
74158;SDS011;62511;47.970;11.774;2022-10-16T01:38:26;2.30;;;1.40;;
74158;SDS011;62511;47.970;11.774;2022-10-16T01:41:02;2.55;;;1.38;;
74158;SDS011;62511;47.970;11.774;2022-10-16T01:43:36;1.73;;;1.25;;
74158;SDS011;62511;47.970;11.774;2022-10-16T01:46:04;1.85;;;0.93;;
74158;SDS011;62511;47.970;11.774;2022-10-16T01:48:30;2.38;;;1.30;;
74158;SDS011;62511;47.970;11.774;2022-10-16T01:51:00;1.65;;;1.25;;
74158;SDS011;62511;47.970;11.774;2022-10-16T01:53:27;1.77;;;1.10;;
74158;SDS011;62511;47.970;11.774;2022-10-16T01:55:53;1.63;;;1.15;;
74158;SDS011;62511;47.970;11.774;2022-10-16T01:58:21;2.97;;;1.08;;
74158;SDS011;62511;47.970;11.774;2022-10-16T02:00:47;1.35;;;0.90;;
74158;SDS011;62511;47.970;11.774;2022-10-16T02:03:14;1.58;;;0.90;;
74158;SDS011;62511;47.970;11.774;2022-10-16T02:08:10;2.00;;;1.10;;
74158;SDS011;62511;47.970;11.774;2022-10-16T02:10:37;4.60;;;1.30;;
74158;SDS011;62511;47.970;11.774;2022-10-16T02:13:10;2.40;;;1.23;;
74158;SDS011;62511;47.970;11.774;2022-10-16T02:15:37;1.33;;;0.90;;
74158;SDS011;62511;47.970;11.774;2022-10-16T02:18:04;2.65;;;0.95;;
74158;SDS011;62511;47.970;11.774;2022-10-16T02:20:32;1.77;;;0.82;;
74158;SDS011;62511;47.970;11.774;2022-10-16T02:22:59;2.55;;;1.15;;
74158;SDS011;62511;47.970;11.774;2022-10-16T02:25:29;1.80;;;1.30;;
74158;SDS011;62511;47.970;11.774;2022-10-16T02:31:06;2.40;;;0.85;;
74158;SDS011;62511;47.970;11.774;2022-10-16T02:33:24;1.35;;;1.05;;
74158;SDS011;62511;47.970;11.774;2022-10-16T02:35:51;2.33;;;1.08;;
74158;SDS011;62511;47.970;11.774;2022-10-16T02:38:17;1.65;;;1.05;;
74158;SDS011;62511;47.970;11.774;2022-10-16T02:40:44;2.33;;;1.25;;
74158;SDS011;62511;47.970;11.774;2022-10-16T02:43:10;2.03;;;1.20;;
74158;SDS011;62511;47.970;11.774;2022-10-16T02:45:37;2.17;;;1.42;;
74158;SDS011;62511;47.970;11.774;2022-10-16T02:48:03;1.55;;;1.00;;
74158;SDS011;62511;47.970;11.774;2022-10-16T02:50:29;2.00;;;0.98;;
74158;SDS011;62511;47.970;11.774;2022-10-16T02:52:55;2.15;;;1.15;;
74158;SDS011;62511;47.970;11.774;2022-10-16T02:55:21;2.25;;;1.30;;
74158;SDS011;62511;47.970;11.774;2022-10-16T02:57:47;2.17;;;1.20;;
74158;SDS011;62511;47.970;11.774;2022-10-16T03:00:14;3.25;;;1.20;;
74158;SDS011;62511;47.970;11.774;2022-10-16T03:02:40;1.67;;;1.13;;
74158;SDS011;62511;47.970;11.774;2022-10-16T03:05:07;1.65;;;1.08;;
74158;SDS011;62511;47.970;11.774;2022-10-16T03:07:33;2.80;;;1.20;;
74158;SDS011;62511;47.970;11.774;2022-10-16T03:09:59;3.70;;;1.30;;
74158;SDS011;62511;47.970;11.774;2022-10-16T03:12:26;1.63;;;1.13;;
74158;SDS011;62511;47.970;11.774;2022-10-16T03:14:52;4.05;;;2.83;;
74158;SDS011;62511;47.970;11.774;2022-10-16T03:17:18;3.40;;;1.40;;
74158;SDS011;62511;47.970;11.774;2022-10-16T03:19:44;2.33;;;0.98;;
74158;SDS011;62511;47.970;11.774;2022-10-16T03:22:10;1.42;;;1.33;;
74158;SDS011;62511;47.970;11.774;2022-10-16T03:24:36;2.08;;;1.30;;
74158;SDS011;62511;47.970;11.774;2022-10-16T03:27:03;2.15;;;1.50;;
74158;SDS011;62511;47.970;11.774;2022-10-16T03:29:29;1.60;;;1.25;;
74158;SDS011;62511;47.970;11.774;2022-10-16T03:31:58;1.40;;;1.05;;
74158;SDS011;62511;47.970;11.774;2022-10-16T03:34:25;1.38;;;1.08;;
74158;SDS011;62511;47.970;11.774;2022-10-16T03:39:17;2.22;;;0.98;;
74158;SDS011;62511;47.970;11.774;2022-10-16T03:41:43;1.40;;;1.17;;
74158;SDS011;62511;47.970;11.774;2022-10-16T03:44:11;2.25;;;1.25;;
74158;SDS011;62511;47.970;11.774;2022-10-16T03:46:37;1.38;;;1.00;;
74158;SDS011;62511;47.970;11.774;2022-10-16T03:49:03;2.58;;;1.10;;
74158;SDS011;62511;47.970;11.774;2022-10-16T03:51:29;3.50;;;1.58;;
74158;SDS011;62511;47.970;11.774;2022-10-16T03:53:55;2.47;;;0.85;;
74158;SDS011;62511;47.970;11.774;2022-10-16T03:56:21;3.28;;;1.10;;
74158;SDS011;62511;47.970;11.774;2022-10-16T03:58:47;1.40;;;0.98;;
74158;SDS011;62511;47.970;11.774;2022-10-16T04:01:13;1.58;;;1.13;;
74158;SDS011;62511;47.970;11.774;2022-10-16T04:03:39;1.73;;;1.50;;
74158;SDS011;62511;47.970;11.774;2022-10-16T04:06:06;2.42;;;1.38;;
74158;SDS011;62511;47.970;11.774;2022-10-16T04:08:32;3.47;;;1.23;;
74158;SDS011;62511;47.970;11.774;2022-10-16T04:11:01;1.70;;;1.25;;
74158;SDS011;62511;47.970;11.774;2022-10-16T04:13:27;3.55;;;1.15;;
74158;SDS011;62511;47.970;11.774;2022-10-16T04:15:53;2.60;;;0.98;;
74158;SDS011;62511;47.970;11.774;2022-10-16T04:18:19;1.70;;;1.50;;
74158;SDS011;62511;47.970;11.774;2022-10-16T04:20:45;1.88;;;1.20;;
74158;SDS011;62511;47.970;11.774;2022-10-16T04:23:11;2.28;;;1.40;;
74158;SDS011;62511;47.970;11.774;2022-10-16T04:25:37;1.73;;;1.23;;
74158;SDS011;62511;47.970;11.774;2022-10-16T04:28:03;1.23;;;0.95;;
74158;SDS011;62511;47.970;11.774;2022-10-16T04:30:29;1.08;;;0.90;;
74158;SDS011;62511;47.970;11.774;2022-10-16T04:32:55;2.42;;;1.20;;
74158;SDS011;62511;47.970;11.774;2022-10-16T04:35:21;1.73;;;1.23;;
74158;SDS011;62511;47.970;11.774;2022-10-16T04:37:47;1.60;;;1.05;;
74158;SDS011;62511;47.970;11.774;2022-10-16T04:40:13;1.98;;;1.40;;
74158;SDS011;62511;47.970;11.774;2022-10-16T04:42:41;2.13;;;1.00;;
74158;SDS011;62511;47.970;11.774;2022-10-16T04:45:07;1.50;;;1.20;;
74158;SDS011;62511;47.970;11.774;2022-10-16T04:47:34;2.70;;;1.25;;
74158;SDS011;62511;47.970;11.774;2022-10-16T04:50:00;4.53;;;1.20;;
74158;SDS011;62511;47.970;11.774;2022-10-16T04:52:27;3.78;;;1.30;;
74158;SDS011;62511;47.970;11.774;2022-10-16T04:54:53;1.88;;;1.15;;
74158;SDS011;62511;47.970;11.774;2022-10-16T04:57:21;2.95;;;0.98;;
74158;SDS011;62511;47.970;11.774;2022-10-16T04:59:47;3.70;;;1.02;;
74158;SDS011;62511;47.970;11.774;2022-10-16T05:02:13;1.63;;;1.13;;
74158;SDS011;62511;47.970;11.774;2022-10-16T05:04:40;1.90;;;1.20;;
74158;SDS011;62511;47.970;11.774;2022-10-16T05:07:06;1.70;;;1.10;;
74158;SDS011;62511;47.970;11.774;2022-10-16T05:09:32;1.48;;;1.00;;
74158;SDS011;62511;47.970;11.774;2022-10-16T05:11:58;2.67;;;1.00;;
74158;SDS011;62511;47.970;11.774;2022-10-16T05:14:24;2.05;;;0.93;;
74158;SDS011;62511;47.970;11.774;2022-10-16T05:16:50;2.33;;;1.60;;
74158;SDS011;62511;47.970;11.774;2022-10-16T05:19:16;1.65;;;1.13;;
74158;SDS011;62511;47.970;11.774;2022-10-16T05:21:42;1.20;;;1.00;;
74158;SDS011;62511;47.970;11.774;2022-10-16T05:24:08;1.38;;;0.90;;
74158;SDS011;62511;47.970;11.774;2022-10-16T05:26:34;1.77;;;1.08;;
74158;SDS011;62511;47.970;11.774;2022-10-16T05:29:02;1.50;;;1.00;;
74158;SDS011;62511;47.970;11.774;2022-10-16T05:31:28;1.50;;;1.40;;
74158;SDS011;62511;47.970;11.774;2022-10-16T05:34:03;1.85;;;1.30;;
74158;SDS011;62511;47.970;11.774;2022-10-16T05:36:29;2.42;;;1.27;;
74158;SDS011;62511;47.970;11.774;2022-10-16T05:38:55;1.75;;;1.10;;
74158;SDS011;62511;47.970;11.774;2022-10-16T05:41:21;3.72;;;1.27;;
74158;SDS011;62511;47.970;11.774;2022-10-16T05:43:48;1.17;;;1.02;;
74158;SDS011;62511;47.970;11.774;2022-10-16T05:46:14;1.25;;;1.00;;
74158;SDS011;62511;47.970;11.774;2022-10-16T05:48:41;1.85;;;1.10;;
74158;SDS011;62511;47.970;11.774;2022-10-16T05:51:08;2.08;;;1.10;;
74158;SDS011;62511;47.970;11.774;2022-10-16T05:53:35;1.83;;;1.20;;
74158;SDS011;62511;47.970;11.774;2022-10-16T05:56:01;2.30;;;1.50;;
74158;SDS011;62511;47.970;11.774;2022-10-16T05:58:30;1.10;;;1.00;;
74158;SDS011;62511;47.970;11.774;2022-10-16T06:00:58;2.83;;;0.90;;
74158;SDS011;62511;47.970;11.774;2022-10-16T06:05:50;1.23;;;1.02;;
74158;SDS011;62511;47.970;11.774;2022-10-16T06:08:16;3.03;;;1.08;;
74158;SDS011;62511;47.970;11.774;2022-10-16T06:10:42;1.30;;;1.00;;
74158;SDS011;62511;47.970;11.774;2022-10-16T06:13:09;3.30;;;1.23;;
74158;SDS011;62511;47.970;11.774;2022-10-16T06:15:35;1.88;;;1.08;;
74158;SDS011;62511;47.970;11.774;2022-10-16T06:18:01;2.15;;;1.30;;
74158;SDS011;62511;47.970;11.774;2022-10-16T06:20:27;3.42;;;1.35;;
74158;SDS011;62511;47.970;11.774;2022-10-16T06:22:53;6.80;;;2.30;;
74158;SDS011;62511;47.970;11.774;2022-10-16T06:25:19;4.60;;;2.15;;
74158;SDS011;62511;47.970;11.774;2022-10-16T06:27:46;3.17;;;1.50;;
74158;SDS011;62511;47.970;11.774;2022-10-16T06:30:12;3.80;;;1.60;;
74158;SDS011;62511;47.970;11.774;2022-10-16T06:32:38;2.28;;;1.23;;
74158;SDS011;62511;47.970;11.774;2022-10-16T06:35:04;1.58;;;1.38;;
74158;SDS011;62511;47.970;11.774;2022-10-16T06:37:30;1.38;;;0.90;;
74158;SDS011;62511;47.970;11.774;2022-10-16T06:39:56;1.75;;;1.10;;
74158;SDS011;62511;47.970;11.774;2022-10-16T06:42:22;3.50;;;1.45;;
74158;SDS011;62511;47.970;11.774;2022-10-16T06:44:48;2.53;;;1.27;;
74158;SDS011;62511;47.970;11.774;2022-10-16T06:47:14;2.45;;;1.63;;
74158;SDS011;62511;47.970;11.774;2022-10-16T06:49:40;2.70;;;1.38;;
74158;SDS011;62511;47.970;11.774;2022-10-16T06:52:06;2.92;;;1.50;;
74158;SDS011;62511;47.970;11.774;2022-10-16T06:54:32;2.00;;;1.50;;
74158;SDS011;62511;47.970;11.774;2022-10-16T06:56:58;2.00;;;1.35;;
74158;SDS011;62511;47.970;11.774;2022-10-16T06:59:25;1.83;;;1.50;;
74158;SDS011;62511;47.970;11.774;2022-10-16T07:01:51;2.85;;;1.70;;
74158;SDS011;62511;47.970;11.774;2022-10-16T07:04:17;2.65;;;1.30;;
74158;SDS011;62511;47.970;11.774;2022-10-16T07:06:43;1.88;;;1.50;;
74158;SDS011;62511;47.970;11.774;2022-10-16T07:09:09;1.80;;;1.33;;
74158;SDS011;62511;47.970;11.774;2022-10-16T07:11:36;2.92;;;1.50;;
74158;SDS011;62511;47.970;11.774;2022-10-16T07:16:29;1.58;;;1.38;;
74158;SDS011;62511;47.970;11.774;2022-10-16T07:18:56;1.50;;;1.17;;
74158;SDS011;62511;47.970;11.774;2022-10-16T07:21:26;1.45;;;1.20;;
74158;SDS011;62511;47.970;11.774;2022-10-16T07:23:54;5.07;;;1.70;;
74158;SDS011;62511;47.970;11.774;2022-10-16T07:26:22;2.60;;;1.40;;
74158;SDS011;62511;47.970;11.774;2022-10-16T07:28:49;1.92;;;1.40;;
74158;SDS011;62511;47.970;11.774;2022-10-16T07:33:42;1.83;;;1.13;;
74158;SDS011;62511;47.970;11.774;2022-10-16T07:36:09;3.15;;;1.50;;
74158;SDS011;62511;47.970;11.774;2022-10-16T07:38:35;2.22;;;1.45;;
74158;SDS011;62511;47.970;11.774;2022-10-16T07:41:03;1.77;;;1.13;;
74158;SDS011;62511;47.970;11.774;2022-10-16T07:43:30;1.52;;;1.13;;
74158;SDS011;62511;47.970;11.774;2022-10-16T07:45:56;1.92;;;1.33;;
74158;SDS011;62511;47.970;11.774;2022-10-16T07:48:22;1.52;;;1.23;;
74158;SDS011;62511;47.970;11.774;2022-10-16T07:50:49;2.15;;;1.42;;
74158;SDS011;62511;47.970;11.774;2022-10-16T07:53:15;1.85;;;1.52;;
74158;SDS011;62511;47.970;11.774;2022-10-16T07:55:41;1.88;;;1.10;;
74158;SDS011;62511;47.970;11.774;2022-10-16T07:58:07;1.95;;;1.23;;
74158;SDS011;62511;47.970;11.774;2022-10-16T08:00:33;1.90;;;1.27;;
74158;SDS011;62511;47.970;11.774;2022-10-16T08:02:59;1.60;;;1.10;;
74158;SDS011;62511;47.970;11.774;2022-10-16T08:05:26;4.10;;;1.45;;
74158;SDS011;62511;47.970;11.774;2022-10-16T08:07:52;3.28;;;1.40;;
74158;SDS011;62511;47.970;11.774;2022-10-16T08:10:19;1.90;;;1.63;;
74158;SDS011;62511;47.970;11.774;2022-10-16T08:15:11;1.92;;;1.40;;
74158;SDS011;62511;47.970;11.774;2022-10-16T08:17:37;2.47;;;1.60;;
74158;SDS011;62511;47.970;11.774;2022-10-16T08:20:04;1.77;;;1.45;;
74158;SDS011;62511;47.970;11.774;2022-10-16T08:22:30;3.42;;;1.88;;
74158;SDS011;62511;47.970;11.774;2022-10-16T08:24:56;2.28;;;1.10;;
74158;SDS011;62511;47.970;11.774;2022-10-16T08:27:22;1.80;;;1.00;;
74158;SDS011;62511;47.970;11.774;2022-10-16T08:29:49;2.92;;;1.00;;
74158;SDS011;62511;47.970;11.774;2022-10-16T08:32:15;1.60;;;1.10;;
74158;SDS011;62511;47.970;11.774;2022-10-16T08:34:41;1.75;;;1.10;;
74158;SDS011;62511;47.970;11.774;2022-10-16T08:37:08;2.40;;;1.80;;
74158;SDS011;62511;47.970;11.774;2022-10-16T08:39:36;2.13;;;1.40;;
74158;SDS011;62511;47.970;11.774;2022-10-16T08:44:35;1.20;;;1.00;;
74158;SDS011;62511;47.970;11.774;2022-10-16T08:52:19;3.25;;;1.00;;
74158;SDS011;62511;47.970;11.774;2022-10-16T08:54:46;2.63;;;0.88;;
74158;SDS011;62511;47.970;11.774;2022-10-16T08:57:15;1.67;;;1.30;;
74158;SDS011;62511;47.970;11.774;2022-10-16T08:59:42;1.35;;;1.25;;
74158;SDS011;62511;47.970;11.774;2022-10-16T09:07:23;1.52;;;1.23;;
74158;SDS011;62511;47.970;11.774;2022-10-16T09:15:13;1.65;;;1.33;;
74158;SDS011;62511;47.970;11.774;2022-10-16T09:22:51;2.53;;;1.23;;
74158;SDS011;62511;47.970;11.774;2022-10-16T09:25:20;1.92;;;1.10;;
74158;SDS011;62511;47.970;11.774;2022-10-16T09:27:47;3.17;;;1.30;;
74158;SDS011;62511;47.970;11.774;2022-10-16T09:30:14;1.88;;;1.00;;
74158;SDS011;62511;47.970;11.774;2022-10-16T09:32:42;2.13;;;1.20;;
74158;SDS011;62511;47.970;11.774;2022-10-16T09:35:13;1.70;;;1.30;;
74158;SDS011;62511;47.970;11.774;2022-10-16T09:37:40;2.20;;;1.20;;
74158;SDS011;62511;47.970;11.774;2022-10-16T09:40:07;2.22;;;1.40;;
74158;SDS011;62511;47.970;11.774;2022-10-16T09:42:34;1.90;;;1.13;;
74158;SDS011;62511;47.970;11.774;2022-10-16T09:45:01;1.85;;;1.00;;
74158;SDS011;62511;47.970;11.774;2022-10-16T09:47:27;2.08;;;1.13;;
74158;SDS011;62511;47.970;11.774;2022-10-16T09:49:55;1.50;;;1.13;;
74158;SDS011;62511;47.970;11.774;2022-10-16T09:52:23;2.05;;;1.38;;
74158;SDS011;62511;47.970;11.774;2022-10-16T09:57:16;1.70;;;0.98;;
74158;SDS011;62511;47.970;11.774;2022-10-16T09:59:45;1.40;;;1.20;;
74158;SDS011;62511;47.970;11.774;2022-10-16T10:02:12;1.40;;;1.15;;
74158;SDS011;62511;47.970;11.774;2022-10-16T10:04:53;2.17;;;1.15;;
74158;SDS011;62511;47.970;11.774;2022-10-16T10:07:53;1.20;;;1.10;;
74158;SDS011;62511;47.970;11.774;2022-10-16T10:12:37;1.58;;;1.10;;
74158;SDS011;62511;47.970;11.774;2022-10-16T10:15:04;1.52;;;1.10;;
74158;SDS011;62511;47.970;11.774;2022-10-16T10:17:32;2.20;;;1.00;;
74158;SDS011;62511;47.970;11.774;2022-10-16T10:20:00;1.63;;;0.88;;
74158;SDS011;62511;47.970;11.774;2022-10-16T10:27:23;2.45;;;0.80;;
74158;SDS011;62511;47.970;11.774;2022-10-16T10:35:07;1.33;;;1.00;;
74158;SDS011;62511;47.970;11.774;2022-10-16T10:42:59;1.08;;;0.82;;
74158;SDS011;62511;47.970;11.774;2022-10-16T10:45:34;1.10;;;0.68;;
74158;SDS011;62511;47.970;11.774;2022-10-16T10:58:19;0.60;;;0.55;;
74158;SDS011;62511;47.970;11.774;2022-10-16T11:05:59;2.55;;;0.82;;
74158;SDS011;62511;47.970;11.774;2022-10-16T11:08:41;1.00;;;0.70;;
74158;SDS011;62511;47.970;11.774;2022-10-16T11:11:14;0.85;;;0.63;;
74158;SDS011;62511;47.970;11.774;2022-10-16T11:16:15;1.27;;;0.88;;
74158;SDS011;62511;47.970;11.774;2022-10-16T11:21:10;0.55;;;0.55;;
74158;SDS011;62511;47.970;11.774;2022-10-16T11:23:40;0.30;;;0.30;;
74158;SDS011;62511;47.970;11.774;2022-10-16T11:26:11;0.38;;;0.30;;
74158;SDS011;62511;47.970;11.774;2022-10-16T11:28:43;0.30;;;0.30;;
74158;SDS011;62511;47.970;11.774;2022-10-16T11:33:45;1.42;;;0.35;;
74158;SDS011;62511;47.970;11.774;2022-10-16T11:41:32;0.43;;;0.40;;
74158;SDS011;62511;47.970;11.774;2022-10-16T11:47:33;0.60;;;0.47;;
74158;SDS011;62511;47.970;11.774;2022-10-16T11:49:34;0.30;;;0.30;;
74158;SDS011;62511;47.970;11.774;2022-10-16T11:54:56;0.85;;;0.40;;
74158;SDS011;62511;47.970;11.774;2022-10-16T11:57:28;0.75;;;0.30;;
74158;SDS011;62511;47.970;11.774;2022-10-16T12:00:02;0.80;;;0.52;;
74158;SDS011;62511;47.970;11.774;2022-10-16T12:02:33;0.68;;;0.50;;
74158;SDS011;62511;47.970;11.774;2022-10-16T12:05:49;0.60;;;0.40;;
74158;SDS011;62511;47.970;11.774;2022-10-16T12:07:57;0.60;;;0.50;;
74158;SDS011;62511;47.970;11.774;2022-10-16T12:10:26;0.40;;;0.40;;
74158;SDS011;62511;47.970;11.774;2022-10-16T12:12:53;0.38;;;0.35;;
74158;SDS011;62511;47.970;11.774;2022-10-16T12:15:21;0.63;;;0.40;;
74158;SDS011;62511;47.970;11.774;2022-10-16T12:17:47;0.50;;;0.50;;
74158;SDS011;62511;47.970;11.774;2022-10-16T12:22:59;0.40;;;0.30;;
74158;SDS011;62511;47.970;11.774;2022-10-16T12:25:26;1.00;;;0.50;;
74158;SDS011;62511;47.970;11.774;2022-10-16T12:27:57;2.08;;;0.40;;
74158;SDS011;62511;47.970;11.774;2022-10-16T12:30:24;0.50;;;0.50;;
74158;SDS011;62511;47.970;11.774;2022-10-16T12:32:53;0.40;;;0.30;;
74158;SDS011;62511;47.970;11.774;2022-10-16T12:35:22;1.48;;;0.40;;
74158;SDS011;62511;47.970;11.774;2022-10-16T12:37:49;0.40;;;0.40;;
74158;SDS011;62511;47.970;11.774;2022-10-16T12:42:47;0.65;;;0.40;;
74158;SDS011;62511;47.970;11.774;2022-10-16T12:45:29;1.63;;;0.28;;
74158;SDS011;62511;47.970;11.774;2022-10-16T12:47:56;1.25;;;0.40;;
74158;SDS011;62511;47.970;11.774;2022-10-16T12:50:33;0.80;;;0.57;;
74158;SDS011;62511;47.970;11.774;2022-10-16T12:53:00;0.30;;;0.30;;
74158;SDS011;62511;47.970;11.774;2022-10-16T12:58:09;0.57;;;0.30;;
74158;SDS011;62511;47.970;11.774;2022-10-16T13:00:50;0.80;;;0.68;;
74158;SDS011;62511;47.970;11.774;2022-10-16T13:06:25;0.82;;;0.30;;
74158;SDS011;62511;47.970;11.774;2022-10-16T13:09:13;0.40;;;0.40;;
74158;SDS011;62511;47.970;11.774;2022-10-16T13:19:15;1.05;;;0.40;;
74158;SDS011;62511;47.970;11.774;2022-10-16T13:21:56;0.43;;;0.32;;
74158;SDS011;62511;47.970;11.774;2022-10-16T13:30:19;0.70;;;0.70;;
74158;SDS011;62511;47.970;11.774;2022-10-16T13:32:47;0.47;;;0.30;;
74158;SDS011;62511;47.970;11.774;2022-10-16T13:35:21;1.50;;;0.32;;
74158;SDS011;62511;47.970;11.774;2022-10-16T13:37:47;0.63;;;0.55;;
74158;SDS011;62511;47.970;11.774;2022-10-16T13:40:23;1.30;;;0.45;;
74158;SDS011;62511;47.970;11.774;2022-10-16T13:42:51;2.33;;;0.50;;
74158;SDS011;62511;47.970;11.774;2022-10-16T13:45:19;0.93;;;0.57;;
74158;SDS011;62511;47.970;11.774;2022-10-16T13:47:45;1.23;;;0.40;;
74158;SDS011;62511;47.970;11.774;2022-10-16T13:50:13;1.45;;;0.60;;
74158;SDS011;62511;47.970;11.774;2022-10-16T13:52:39;2.78;;;0.60;;
74158;SDS011;62511;47.970;11.774;2022-10-16T13:55:13;1.15;;;0.40;;
74158;SDS011;62511;47.970;11.774;2022-10-16T13:57:39;0.43;;;0.30;;
74158;SDS011;62511;47.970;11.774;2022-10-16T14:00:26;0.38;;;0.30;;
74158;SDS011;62511;47.970;11.774;2022-10-16T14:03:11;1.17;;;0.40;;
74158;SDS011;62511;47.970;11.774;2022-10-16T14:05:48;0.55;;;0.50;;
74158;SDS011;62511;47.970;11.774;2022-10-16T14:08:15;0.47;;;0.38;;
74158;SDS011;62511;47.970;11.774;2022-10-16T14:10:41;0.70;;;0.43;;
74158;SDS011;62511;47.970;11.774;2022-10-16T14:13:07;0.57;;;0.50;;
74158;SDS011;62511;47.970;11.774;2022-10-16T14:15:34;0.60;;;0.47;;
74158;SDS011;62511;47.970;11.774;2022-10-16T14:18:01;0.43;;;0.38;;
74158;SDS011;62511;47.970;11.774;2022-10-16T14:20:28;1.35;;;0.40;;
74158;SDS011;62511;47.970;11.774;2022-10-16T14:22:59;1.05;;;0.50;;
74158;SDS011;62511;47.970;11.774;2022-10-16T14:25:29;0.47;;;0.35;;
74158;SDS011;62511;47.970;11.774;2022-10-16T14:28:03;0.75;;;0.50;;
74158;SDS011;62511;47.970;11.774;2022-10-16T14:30:31;1.00;;;0.40;;
74158;SDS011;62511;47.970;11.774;2022-10-16T14:35:25;1.05;;;0.63;;
74158;SDS011;62511;47.970;11.774;2022-10-16T14:37:52;0.70;;;0.50;;
74158;SDS011;62511;47.970;11.774;2022-10-16T14:40:20;0.77;;;0.40;;
74158;SDS011;62511;47.970;11.774;2022-10-16T14:42:46;0.95;;;0.45;;
74158;SDS011;62511;47.970;11.774;2022-10-16T14:45:12;0.70;;;0.40;;
74158;SDS011;62511;47.970;11.774;2022-10-16T14:48:41;0.57;;;0.47;;
74158;SDS011;62511;47.970;11.774;2022-10-16T14:50:36;0.50;;;0.50;;
74158;SDS011;62511;47.970;11.774;2022-10-16T14:53:07;0.82;;;0.70;;
74158;SDS011;62511;47.970;11.774;2022-10-16T14:55:36;0.90;;;0.80;;
74158;SDS011;62511;47.970;11.774;2022-10-16T14:58:02;0.98;;;0.80;;
74158;SDS011;62511;47.970;11.774;2022-10-16T15:00:28;2.08;;;0.80;;
74158;SDS011;62511;47.970;11.774;2022-10-16T15:02:54;1.75;;;1.00;;
74158;SDS011;62511;47.970;11.774;2022-10-16T15:05:21;1.73;;;1.38;;
74158;SDS011;62511;47.970;11.774;2022-10-16T15:07:48;3.42;;;1.17;;
74158;SDS011;62511;47.970;11.774;2022-10-16T15:10:15;3.35;;;1.30;;
74158;SDS011;62511;47.970;11.774;2022-10-16T15:12:42;2.33;;;1.25;;
74158;SDS011;62511;47.970;11.774;2022-10-16T15:17:46;2.97;;;2.35;;
74158;SDS011;62511;47.970;11.774;2022-10-16T15:22:38;2.15;;;0.98;;
74158;SDS011;62511;47.970;11.774;2022-10-16T15:25:10;1.50;;;1.05;;
74158;SDS011;62511;47.970;11.774;2022-10-16T15:27:43;3.53;;;1.42;;
74158;SDS011;62511;47.970;11.774;2022-10-16T15:30:09;1.98;;;1.35;;
74158;SDS011;62511;47.970;11.774;2022-10-16T15:32:35;1.80;;;1.55;;
74158;SDS011;62511;47.970;11.774;2022-10-16T15:35:01;1.58;;;1.40;;
74158;SDS011;62511;47.970;11.774;2022-10-16T15:37:27;2.50;;;1.90;;
74158;SDS011;62511;47.970;11.774;2022-10-16T15:39:53;3.00;;;1.95;;
74158;SDS011;62511;47.970;11.774;2022-10-16T15:42:19;2.00;;;1.80;;
74158;SDS011;62511;47.970;11.774;2022-10-16T15:44:45;2.97;;;1.98;;
74158;SDS011;62511;47.970;11.774;2022-10-16T15:47:11;2.33;;;1.40;;
74158;SDS011;62511;47.970;11.774;2022-10-16T15:49:37;2.83;;;1.67;;
74158;SDS011;62511;47.970;11.774;2022-10-16T15:52:04;2.88;;;2.58;;
74158;SDS011;62511;47.970;11.774;2022-10-16T15:54:30;2.42;;;1.50;;
74158;SDS011;62511;47.970;11.774;2022-10-16T15:56:57;2.78;;;1.30;;
74158;SDS011;62511;47.970;11.774;2022-10-16T15:59:23;2.78;;;1.48;;
74158;SDS011;62511;47.970;11.774;2022-10-16T16:01:49;2.45;;;1.40;;
74158;SDS011;62511;47.970;11.774;2022-10-16T16:04:15;1.98;;;1.38;;
74158;SDS011;62511;47.970;11.774;2022-10-16T16:06:42;2.17;;;1.70;;
74158;SDS011;62511;47.970;11.774;2022-10-16T16:09:10;5.97;;;2.00;;
74158;SDS011;62511;47.970;11.774;2022-10-16T16:14:04;3.17;;;1.85;;
74158;SDS011;62511;47.970;11.774;2022-10-16T16:16:30;3.30;;;1.55;;
74158;SDS011;62511;47.970;11.774;2022-10-16T16:19:01;2.28;;;1.48;;
74158;SDS011;62511;47.970;11.774;2022-10-16T16:21:35;1.92;;;0.98;;
74158;SDS011;62511;47.970;11.774;2022-10-16T16:24:01;4.22;;;2.72;;
74158;SDS011;62511;47.970;11.774;2022-10-16T16:26:32;5.57;;;3.10;;
74158;SDS011;62511;47.970;11.774;2022-10-16T16:29:01;4.95;;;2.85;;
74158;SDS011;62511;47.970;11.774;2022-10-16T16:31:28;4.15;;;2.72;;
74158;SDS011;62511;47.970;11.774;2022-10-16T16:33:56;4.97;;;2.30;;
74158;SDS011;62511;47.970;11.774;2022-10-16T16:36:23;3.80;;;1.85;;
74158;SDS011;62511;47.970;11.774;2022-10-16T16:38:49;3.10;;;1.95;;
74158;SDS011;62511;47.970;11.774;2022-10-16T16:41:16;3.60;;;2.08;;
74158;SDS011;62511;47.970;11.774;2022-10-16T16:43:43;3.22;;;2.10;;
74158;SDS011;62511;47.970;11.774;2022-10-16T16:46:09;3.55;;;2.40;;
74158;SDS011;62511;47.970;11.774;2022-10-16T16:48:35;4.07;;;2.35;;
74158;SDS011;62511;47.970;11.774;2022-10-16T16:51:04;9.27;;;4.68;;
74158;SDS011;62511;47.970;11.774;2022-10-16T16:53:32;21.38;;;11.05;;